Flight Track Log - Related Links

Times and Time Zones

All times are in EDT time to prevent confusion due to time zone crossing. See the ASQ5740 flight status page for this flight to view local times or setup timezone preferences in your user account.


Time Position Orientation Groundspeed Altitude Reporting Facility
EDT Latitude Longitude Course Direction KTS MPH feet Rate Location/Type
Thu 03:02:43 PM 34.9631 -82.0239 85° East 285 328 7,500  Level Atlanta Center
Thu 03:03:00 PM 35.1996 -81.8860 North  Level Estimated
Thu 03:03:43 PM 35.0142 -81.9592 46° Northeast 266 306 10,000  Level Atlanta Center
Thu 03:04:00 PM 35.2754 -81.8024 North  Level Estimated
Thu 03:04:43 PM 35.0889 -81.9344 15° North 273 314 11,200  Level Atlanta Center
Thu 03:05:00 PM 35.3512 -81.7186 80° East  Level Estimated
Thu 03:05:43 PM 35.1850 -81.9372 359° North 299 344 12,500  Level Atlanta Center
Thu 03:06:43 PM 35.2706 -81.9375 360° North 336 387 13,800 1,450 Climbing Atlanta Center
Thu 03:07:43 PM 35.3358 -81.8492 48° Northeast 310 357 15,400 1,650 Climbing Atlanta Center
Thu 03:08:43 PM 35.3794 -81.7361 65° Northeast 338 389 17,100 1,650 Climbing Atlanta Center
Thu 03:09:43 PM 35.4233 -81.6228 65° Northeast 355 409 18,700 1,600 Climbing Atlanta Center
Thu 03:10:43 PM 35.4650 -81.5144 65° Northeast 355 409 20,300 1,350 Climbing Atlanta Center
Thu 03:11:43 PM 35.5083 -81.4008 65° Northeast 355 409 21,400 950 Climbing Atlanta Center
Thu 03:12:43 PM 35.5439 -81.3000 67° East 361 415 22,200 1,050 Climbing Atlanta Center
Thu 03:13:43 PM 35.6008 -81.1500 65° Northeast 384 442 23,500 1,050 Climbing Atlanta Center
Thu 03:14:43 PM 35.6442 -81.0436 63° Northeast 384 442 24,300 750 Climbing Atlanta Center
Thu 03:15:43 PM 35.6892 -80.9244 65° Northeast 389 448 25,000 350 Climbing Atlanta Center
Thu 03:16:43 PM 35.7381 -80.7972 65° Northeast 394 453 25,000  Level Atlanta Center
Thu 03:17:43 PM 35.7908 -80.6647 64° Northeast 412 474 25,000 600 Level Atlanta Center
Thu 03:18:43 PM 35.8392 -80.5294 66° East 423 487 26,200 1,000 Climbing Atlanta Center
Thu 03:19:43 PM 35.8914 -80.3861 66° East 423 487 27,000 400 Climbing Atlanta Center
Thu 03:20:43 PM 35.9394 -80.2533 66° East 423 487 27,000  Level Atlanta Center
Thu 03:21:43 PM 35.9914 -80.1172 65° Northeast 423 487 27,000  Level Atlanta Center
Thu 03:23:39 PM 36.1131 -79.8653 59° Northeast 441 507 27,000  Level Washington Center
Thu 03:24:40 PM 36.1756 -79.7503 56° Northeast 451 519 27,000  Level Washington Center
Thu 03:25:41 PM 36.2533 -79.6103 55° Northeast 451 519 27,000  Level Washington Center
Thu 03:26:41 PM 36.3178 -79.4950 55° Northeast 451 519 27,000  Level Washington Center
Thu 03:27:39 PM 36.3886 -79.3694 55° Northeast 446 513 27,000  Level Washington Center
Thu 03:28:40 PM 36.4594 -79.2411 56° Northeast 451 519 27,000  Level Washington Center
Thu 03:29:41 PM 36.5342 -79.1153 54° Northeast 457 526 27,000 -298 Level Washington Center
Thu 03:30:41 PM 36.6067 -78.9842 55° Northeast 451 519 26,400 -857 Descending Washington Center
Thu 03:31:40 PM 36.6836 -78.8397 56° Northeast 451 519 25,300 -700 Descending Washington Center
Thu 03:32:41 PM 36.7472 -78.7233 56° Northeast 451 519 25,000 -148 Descending Washington Center
Thu 03:33:42 PM 36.8311 -78.6256 43° Northeast 435 501 25,000  Level Washington Center
Thu 03:34:39 PM 36.9150 -78.5300 42° Northeast 412 474 25,000  Level Washington Center
Thu 03:35:39 PM 37.0031 -78.4294 42° Northeast 407 468 25,000  Level Washington Center
Thu 03:36:40 PM 37.0972 -78.3233 42° Northeast 412 474 25,000  Level Washington Center
Thu 03:37:41 PM 37.1850 -78.2247 42° Northeast 412 474 25,000  Level Washington Center
Thu 03:38:41 PM 37.2597 -78.1386 43° Northeast 412 474 25,000 -500 Level Washington Center
Thu 03:39:41 PM 37.3408 -78.0475 42° Northeast 402 463 24,000 -1,017 Descending Washington Center
Thu 03:40:39 PM 37.4242 -77.9506 43° Northeast 402 463 23,000 -1,017 Descending Washington Center
Thu 03:41:39 PM 37.5053 -77.8564 43° Northeast 402 463 22,000 -650 Descending Washington Center
Thu 03:42:39 PM 37.6006 -77.7858 30° Northeast 396 456 21,700 -992 Descending Washington Center
Thu 03:43:40 PM 37.6997 -77.7283 25° Northeast 391 450 20,000 -1,820 Descending Washington Center
Thu 03:44:41 PM 37.7944 -77.6731 25° Northeast 376 433 18,000 -2,033 Descending Washington Center
Thu 03:45:41 PM 37.8869 -77.6203 24° Northeast 366 421 15,900 -2,085 Descending Washington Center
Thu 03:46:39 PM 37.9733 -77.5675 26° Northeast 355 409 13,900 -2,118 Descending Washington Center
Thu 03:47:40 PM 38.0661 -77.5169 23° Northeast 343 395 11,700 -1,934 Descending Washington Center
Thu 03:48:40 PM 38.1461 -77.4689 25° Northeast 324 373 10,000 -843 Descending Washington Center
Thu 03:49:41 PM 38.2156 -77.4283 25° Northeast 292 336 10,000 -298 Level Washington Center
Thu 03:50:41 PM 38.2883 -77.4303 359° North 256 295 9,400 -763 Descending Washington Center
Thu 03:51:39 PM 38.3444 -77.4581 339° North 256 295 8,500 -1,109 Descending Washington Center
Thu 03:52:40 PM 38.4275 -77.4708 353° North 250 288 7,200 -750 Descending Washington Center
Thu 03:53:39 PM 38.4942 -77.4697 North 250 288 7,000 -101 Descending Washington Center
Thu 03:54:39 PM 38.5611 -77.4689 North 245 282 7,000  Level Washington Center
Thu 03:55:39 PM 38.6236 -77.4678 North 233 268 7,000 -645 Level Washington Center
Thu 03:56:40 PM 38.6717 -77.4664 North 201 231 5,700 -1,125 Descending Washington Center
Thu 03:58:03 PM 38.7333 -77.4667 360° North 171 197 4,300 -1,007 Descending Potomac TRACON
Thu 03:59:03 PM 38.7833 -77.4667 360° North 176 203 3,300 -991 Descending Potomac TRACON
Thu 03:59:58 PM 38.8333 -77.4667 360° North 177 204 2,400 -887 Descending Potomac TRACON
Thu 04:00:58 PM 38.8833 -77.4667 360° North 154 177 1,600 -793 Descending Potomac TRACON
Thu 04:01:59 PM 38.9167 -77.4667 360° North 141 162 800 -787 Descending Potomac TRACON

Login

Don't have an account? Register now (free) for customized features, flight alerts, and more!